sensor_id;sensor_type;location;lat;lon;timestamp;pressure;altitude;pressure_sealevel;temperature;humidity
20156;BME280;10238;49.556;10.956;2023-02-28T00:01:11;99240.31;;;-3.55;100.00
20156;BME280;10238;49.556;10.956;2023-02-28T00:03:59;99233.34;;;-3.53;100.00
20156;BME280;10238;49.556;10.956;2023-02-28T00:06:47;99233.34;;;-3.53;100.00
20156;BME280;10238;49.556;10.956;2023-02-28T00:09:35;99231.44;;;-3.48;100.00
20156;BME280;10238;49.556;10.956;2023-02-28T00:12:25;99240.81;;;-3.42;100.00
20156;BME280;10238;49.556;10.956;2023-02-28T00:15:14;99225.31;;;-3.45;100.00
20156;BME280;10238;49.556;10.956;2023-02-28T00:18:03;99233.16;;;-3.47;100.00
20156;BME280;10238;49.556;10.956;2023-02-28T00:20:51;99234.13;;;-3.51;100.00
20156;BME280;10238;49.556;10.956;2023-02-28T00:23:41;99232.38;;;-3.50;100.00
20156;BME280;10238;49.556;10.956;2023-02-28T00:26:29;99233.34;;;-3.53;100.00
20156;BME280;10238;49.556;10.956;2023-02-28T00:29:18;99228.13;;;-3.53;100.00
20156;BME280;10238;49.556;10.956;2023-02-28T00:32:06;99231.59;;;-3.54;100.00
20156;BME280;10238;49.556;10.956;2023-02-28T00:34:55;99231.72;;;-3.57;100.00
20156;BME280;10238;49.556;10.956;2023-02-28T00:37:43;99233.56;;;-3.60;100.00
20156;BME280;10238;49.556;10.956;2023-02-28T00:40:31;99237.06;;;-3.61;100.00
20156;BME280;10238;49.556;10.956;2023-02-28T00:43:19;99237.13;;;-3.63;100.00
20156;BME280;10238;49.556;10.956;2023-02-28T00:46:08;99226.81;;;-3.66;100.00
20156;BME280;10238;49.556;10.956;2023-02-28T00:48:56;99240.69;;;-3.67;100.00
20156;BME280;10238;49.556;10.956;2023-02-28T00:51:44;99233.84;;;-3.69;100.00
20156;BME280;10238;49.556;10.956;2023-02-28T00:54:32;99234.78;;;-3.72;100.00
20156;BME280;10238;49.556;10.956;2023-02-28T00:57:20;99233.97;;;-3.74;100.00
20156;BME280;10238;49.556;10.956;2023-02-28T01:00:09;99228.88;;;-3.77;100.00
20156;BME280;10238;49.556;10.956;2023-02-28T01:02:59;99228.88;;;-3.77;100.00
20156;BME280;10238;49.556;10.956;2023-02-28T01:05:47;99230.72;;;-3.80;100.00
20156;BME280;10238;49.556;10.956;2023-02-28T01:08:35;99228.13;;;-3.80;100.00
20156;BME280;10238;49.556;10.956;2023-02-28T01:11:23;99221.25;;;-3.83;100.00
20156;BME280;10238;49.556;10.956;2023-02-28T01:14:12;99220.38;;;-3.82;100.00
20156;BME280;10238;49.556;10.956;2023-02-28T01:17:00;99220.47;;;-3.85;100.00
20156;BME280;10238;49.556;10.956;2023-02-28T01:19:50;99215.22;;;-3.83;100.00
20156;BME280;10238;49.556;10.956;2023-02-28T01:22:40;99213.47;;;-3.83;100.00
20156;BME280;10238;49.556;10.956;2023-02-28T01:25:28;99217.75;;;-3.80;100.00
20156;BME280;10238;49.556;10.956;2023-02-28T01:28:16;99213.47;;;-3.83;100.00
20156;BME280;10238;49.556;10.956;2023-02-28T01:31:05;99208.28;;;-3.83;100.00
20156;BME280;10238;49.556;10.956;2023-02-28T01:33:53;99210.00;;;-3.82;100.00
20156;BME280;10238;49.556;10.956;2023-02-28T01:36:42;99210.00;;;-3.82;100.00
20156;BME280;10238;49.556;10.956;2023-02-28T01:39:30;99206.50;;;-3.81;100.00
20156;BME280;10238;49.556;10.956;2023-02-28T01:42:18;99198.59;;;-3.78;100.00
20156;BME280;10238;49.556;10.956;2023-02-28T01:45:21;99206.31;;;-3.75;100.00
20156;BME280;10238;49.556;10.956;2023-02-28T01:48:09;99206.41;;;-3.78;100.00
20156;BME280;10238;49.556;10.956;2023-02-28T01:51:01;99202.09;;;-3.79;100.00
20156;BME280;10238;49.556;10.956;2023-02-28T01:53:56;99202.25;;;-3.83;100.00
20156;BME280;10238;49.556;10.956;2023-02-28T01:56:51;99204.88;;;-3.85;100.00
20156;BME280;10238;49.556;10.956;2023-02-28T01:59:41;99207.53;;;-3.86;100.00
20156;BME280;10238;49.556;10.956;2023-02-28T02:02:32;99202.28;;;-3.85;100.00
20156;BME280;10238;49.556;10.956;2023-02-28T02:05:22;99200.53;;;-3.84;100.00
20156;BME280;10238;49.556;10.956;2023-02-28T02:08:12;99202.25;;;-3.83;100.00
20156;BME280;10238;49.556;10.956;2023-02-28T02:11:03;99187.50;;;-3.83;100.00
20156;BME280;10238;49.556;10.956;2023-02-28T02:17:12;99191.84;;;-3.83;100.00
20156;BME280;10238;49.556;10.956;2023-02-28T02:20:46;99190.34;;;-3.90;100.00
20156;BME280;10238;49.556;10.956;2023-02-28T02:27:22;99187.03;;;-3.95;100.00
20156;BME280;10238;49.556;10.956;2023-02-28T02:37:02;99177.59;;;-3.98;100.00
20156;BME280;10238;49.556;10.956;2023-02-28T02:39:55;99181.88;;;-3.97;100.00
20156;BME280;10238;49.556;10.956;2023-02-28T02:42:50;99180.28;;;-4.01;100.00
20156;BME280;10238;49.556;10.956;2023-02-28T02:45:45;99177.59;;;-3.98;100.00
20156;BME280;10238;49.556;10.956;2023-02-28T02:48:38;99174.19;;;-4.00;100.00
20156;BME280;10238;49.556;10.956;2023-02-28T02:51:31;99172.50;;;-4.01;100.00
20156;BME280;10238;49.556;10.956;2023-02-28T02:54:23;99167.22;;;-3.98;100.00
20156;BME280;10238;49.556;10.956;2023-02-28T02:57:19;99163.75;;;-3.98;100.00
20156;BME280;10238;49.556;10.956;2023-02-28T03:00:10;99168.03;;;-3.97;100.00
20156;BME280;10238;49.556;10.956;2023-02-28T03:02:59;99174.91;;;-3.95;100.00
20156;BME280;10238;49.556;10.956;2023-02-28T03:05:50;99173.94;;;-3.92;100.00
20156;BME280;10238;49.556;10.956;2023-02-28T03:08:38;99174.84;;;-3.93;100.00
20156;BME280;10238;49.556;10.956;2023-02-28T03:11:28;99176.31;;;-3.85;100.00
20156;BME280;10238;49.556;10.956;2023-02-28T03:14:28;99172.78;;;-3.82;100.00
20156;BME280;10238;49.556;10.956;2023-02-28T03:17:31;99175.22;;;-3.78;100.00
20156;BME280;10238;49.556;10.956;2023-02-28T03:20:38;99176.97;;;-3.78;100.00
20156;BME280;10238;49.556;10.956;2023-02-28T03:23:35;99181.34;;;-3.79;100.00
20156;BME280;10238;49.556;10.956;2023-02-28T03:26:28;99184.03;;;-3.82;100.00
20156;BME280;10238;49.556;10.956;2023-02-28T03:29:21;99183.88;;;-3.77;100.00
20156;BME280;10238;49.556;10.956;2023-02-28T03:32:16;99181.38;;;-3.80;100.00
20156;BME280;10238;49.556;10.956;2023-02-28T03:35:11;99176.75;;;-3.71;100.00
20156;BME280;10238;49.556;10.956;2023-02-28T03:38:11;99189.53;;;-3.65;100.00
20156;BME280;10238;49.556;10.956;2023-02-28T03:41:07;99183.63;;;-3.70;100.00
20156;BME280;10238;49.556;10.956;2023-02-28T03:44:03;99186.13;;;-3.67;100.00
20156;BME280;10238;49.556;10.956;2023-02-28T03:46:56;99185.44;;;-3.72;100.00
20156;BME280;10238;49.556;10.956;2023-02-28T03:49:50;99192.19;;;-3.66;100.00
20156;BME280;10238;49.556;10.956;2023-02-28T03:52:44;99184.44;;;-3.68;100.00
20156;BME280;10238;49.556;10.956;2023-02-28T03:55:39;99184.53;;;-3.71;100.00
20156;BME280;10238;49.556;10.956;2023-02-28T03:58:31;99190.72;;;-3.75;100.00
20156;BME280;10238;49.556;10.956;2023-02-28T04:01:25;99190.72;;;-3.75;100.00
20156;BME280;10238;49.556;10.956;2023-02-28T04:04:16;99189.03;;;-3.76;100.00
20156;BME280;10238;49.556;10.956;2023-02-28T04:07:07;99196.81;;;-3.76;100.00
20156;BME280;10238;49.556;10.956;2023-02-28T04:09:56;99190.91;;;-3.81;100.00
20156;BME280;10238;49.556;10.956;2023-02-28T04:12:44;99190.91;;;-3.81;100.00
20156;BME280;10238;49.556;10.956;2023-02-28T04:15:32;99190.94;;;-3.82;100.00
20156;BME280;10238;49.556;10.956;2023-02-28T04:18:21;99193.41;;;-3.78;100.00
20156;BME280;10238;49.556;10.956;2023-02-28T04:21:10;99195.91;;;-3.75;100.00
20156;BME280;10238;49.556;10.956;2023-02-28T04:23:58;99199.50;;;-3.79;100.00
20156;BME280;10238;49.556;10.956;2023-02-28T04:26:48;99194.50;;;-3.85;100.00
20156;BME280;10238;49.556;10.956;2023-02-28T04:29:37;99190.09;;;-3.83;100.00
20156;BME280;10238;49.556;10.956;2023-02-28T04:32:24;99193.41;;;-3.78;100.00
20156;BME280;10238;49.556;10.956;2023-02-28T04:35:14;99187.53;;;-3.84;100.00
20156;BME280;10238;49.556;10.956;2023-02-28T04:38:02;99191.78;;;-3.80;100.00
20156;BME280;10238;49.556;10.956;2023-02-28T04:40:50;99197.97;;;-3.86;100.00
20156;BME280;10238;49.556;10.956;2023-02-28T04:43:38;99194.31;;;-3.79;100.00
20156;BME280;10238;49.556;10.956;2023-02-28T04:46:26;99191.81;;;-3.82;100.00
20156;BME280;10238;49.556;10.956;2023-02-28T04:49:14;99194.41;;;-3.82;100.00
20156;BME280;10238;49.556;10.956;2023-02-28T04:52:03;99201.47;;;-3.87;100.00
20156;BME280;10238;49.556;10.956;2023-02-28T04:54:54;99197.97;;;-3.86;100.00
20156;BME280;10238;49.556;10.956;2023-02-28T04:57:42;99197.78;;;-3.80;100.00
20156;BME280;10238;49.556;10.956;2023-02-28T05:00:30;99194.41;;;-3.82;100.00
20156;BME280;10238;49.556;10.956;2023-02-28T05:03:18;99198.75;;;-3.82;100.00
20156;BME280;10238;49.556;10.956;2023-02-28T05:06:07;99202.03;;;-3.76;100.00
20156;BME280;10238;49.556;10.956;2023-02-28T05:08:57;99204.81;;;-3.82;100.00
20156;BME280;10238;49.556;10.956;2023-02-28T05:11:45;99204.97;;;-3.88;100.00
20156;BME280;10238;49.556;10.956;2023-02-28T05:14:33;99205.06;;;-3.91;100.00
20156;BME280;10238;49.556;10.956;2023-02-28T05:17:21;99206.00;;;-3.93;100.00
20156;BME280;10238;49.556;10.956;2023-02-28T05:20:10;99212.13;;;-3.96;100.00
20156;BME280;10238;49.556;10.956;2023-02-28T05:23:02;99207.84;;;-3.97;100.00
20156;BME280;10238;49.556;10.956;2023-02-28T05:25:51;99202.66;;;-3.97;100.00
20156;BME280;10238;49.556;10.956;2023-02-28T05:28:39;99205.28;;;-3.98;100.00
20156;BME280;10238;49.556;10.956;2023-02-28T05:31:27;99206.94;;;-3.96;100.00
20156;BME280;10238;49.556;10.956;2023-02-28T05:34:16;99207.06;;;-4.00;100.00
20156;BME280;10238;49.556;10.956;2023-02-28T05:37:04;99211.44;;;-4.01;100.00
20156;BME280;10238;49.556;10.956;2023-02-28T05:39:51;99209.72;;;-4.02;100.00
20156;BME280;10238;49.556;10.956;2023-02-28T05:42:41;99212.38;;;-4.05;100.00
20156;BME280;10238;49.556;10.956;2023-02-28T05:45:29;99215.03;;;-4.06;100.00
20156;BME280;10238;49.556;10.956;2023-02-28T05:48:17;99214.19;;;-4.07;100.00
20156;BME280;10238;49.556;10.956;2023-02-28T05:51:05;99213.38;;;-4.09;100.00
20156;BME280;10238;49.556;10.956;2023-02-28T05:53:53;99213.34;;;-4.07;100.00
20156;BME280;10238;49.556;10.956;2023-02-28T05:56:41;99218.41;;;-4.03;100.00
20156;BME280;10238;49.556;10.956;2023-02-28T05:59:32;99211.56;;;-4.05;100.00
20156;BME280;10238;49.556;10.956;2023-02-28T06:02:19;99214.84;;;-4.00;100.00
20156;BME280;10238;49.556;10.956;2023-02-28T06:05:12;99220.91;;;-4.00;100.00
20156;BME280;10238;49.556;10.956;2023-02-28T06:08:01;99217.50;;;-4.02;100.00
20156;BME280;10238;49.556;10.956;2023-02-28T06:10:49;99229.44;;;-3.95;100.00
20156;BME280;10238;49.556;10.956;2023-02-28T06:13:37;99218.97;;;-3.92;100.00
20156;BME280;10238;49.556;10.956;2023-02-28T06:16:27;99224.03;;;-3.89;100.00
20156;BME280;10238;49.556;10.956;2023-02-28T06:19:15;99230.94;;;-3.88;100.00
20156;BME280;10238;49.556;10.956;2023-02-28T06:22:03;99232.69;;;-3.88;100.00
20156;BME280;10238;49.556;10.956;2023-02-28T06:24:51;99225.72;;;-3.86;100.00
20156;BME280;10238;49.556;10.956;2023-02-28T06:27:39;99231.00;;;-3.89;100.00
20156;BME280;10238;49.556;10.956;2023-02-28T06:30:27;99231.03;;;-3.91;100.00
20156;BME280;10238;49.556;10.956;2023-02-28T06:33:18;99236.22;;;-3.91;100.00
20156;BME280;10238;49.556;10.956;2023-02-28T06:36:08;99242.94;;;-3.84;100.00
20156;BME280;10238;49.556;10.956;2023-02-28T06:38:56;99242.06;;;-3.84;100.00
20156;BME280;10238;49.556;10.956;2023-02-28T06:41:44;99245.03;;;-3.67;100.00
20156;BME280;10238;49.556;10.956;2023-02-28T06:44:41;99250.97;;;-3.64;100.00
20156;BME280;10238;49.556;10.956;2023-02-28T06:47:31;99247.50;;;-3.63;100.00
20156;BME280;10238;49.556;10.956;2023-02-28T06:50:20;99246.47;;;-3.57;100.00
20156;BME280;10238;49.556;10.956;2023-02-28T06:53:09;99248.84;;;-3.50;100.00
20156;BME280;10238;49.556;10.956;2023-02-28T06:55:56;99248.78;;;-3.48;100.00
20156;BME280;10238;49.556;10.956;2023-02-28T06:58:47;99247.59;;;-3.38;100.00
20156;BME280;10238;49.556;10.956;2023-02-28T07:01:35;99260.34;;;-3.31;100.00
20156;BME280;10238;49.556;10.956;2023-02-28T07:04:24;99260.72;;;-3.15;100.00
20156;BME280;10238;49.556;10.956;2023-02-28T07:07:13;99259.84;;;-3.16;100.00
20156;BME280;10238;49.556;10.956;2023-02-28T07:10:01;99256.09;;;-3.06;100.00
20156;BME280;10238;49.556;10.956;2023-02-28T07:12:49;99262.16;;;-3.07;100.00
20156;BME280;10238;49.556;10.956;2023-02-28T07:15:38;99269.59;;;-2.95;100.00
20156;BME280;10238;49.556;10.956;2023-02-28T07:18:30;99262.50;;;-2.90;100.00
20156;BME280;10238;49.556;10.956;2023-02-28T07:21:18;99259.09;;;-2.92;100.00
20156;BME280;10238;49.556;10.956;2023-02-28T07:24:07;99265.88;;;-2.88;100.00
20156;BME280;10238;49.556;10.956;2023-02-28T07:26:56;99265.47;;;-2.76;100.00
20156;BME280;10238;49.556;10.956;2023-02-28T07:29:45;99264.72;;;-2.79;100.00
20156;BME280;10238;49.556;10.956;2023-02-28T07:32:34;99266.28;;;-2.74;100.00
20156;BME280;10238;49.556;10.956;2023-02-28T07:35:25;99266.25;;;-2.72;100.00
20156;BME280;10238;49.556;10.956;2023-02-28T07:38:13;99264.31;;;-2.67;100.00
20156;BME280;10238;49.556;10.956;2023-02-28T07:41:02;99265.81;;;-2.60;100.00
20156;BME280;10238;49.556;10.956;2023-02-28T07:43:54;99266.47;;;-2.54;100.00
20156;BME280;10238;49.556;10.956;2023-02-28T07:46:42;99262.59;;;-2.42;100.00
20156;BME280;10238;49.556;10.956;2023-02-28T07:49:30;99261.47;;;-2.35;100.00
20156;BME280;10238;49.556;10.956;2023-02-28T07:52:18;99259.91;;;-2.16;100.00
20156;BME280;10238;49.556;10.956;2023-02-28T07:55:08;99265.75;;;-2.09;100.00
20156;BME280;10238;49.556;10.956;2023-02-28T07:57:57;99259.31;;;-1.76;100.00
20156;BME280;10238;49.556;10.956;2023-02-28T08:00:45;99263.59;;;-1.75;100.00
20156;BME280;10238;49.556;10.956;2023-02-28T08:03:33;99269.06;;;-1.58;100.00
20156;BME280;10238;49.556;10.956;2023-02-28T08:06:23;99262.19;;;-1.38;100.00
20156;BME280;10238;49.556;10.956;2023-02-28T08:09:12;99263.88;;;-1.15;100.00
20156;BME280;10238;49.556;10.956;2023-02-28T08:12:01;99259.81;;;-1.22;100.00
20156;BME280;10238;49.556;10.956;2023-02-28T08:14:50;99266.75;;;-1.00;100.00
20156;BME280;10238;49.556;10.956;2023-02-28T08:17:38;99260.28;;;-0.91;100.00
20156;BME280;10238;49.556;10.956;2023-02-28T08:20:26;99265.34;;;-0.67;100.00
20156;BME280;10238;49.556;10.956;2023-02-28T08:23:14;99254.78;;;-0.64;100.00
20156;BME280;10238;49.556;10.956;2023-02-28T08:26:03;99244.28;;;-0.62;100.00
20156;BME280;10238;49.556;10.956;2023-02-28T08:28:51;99245.47;;;-0.49;100.00
20156;BME280;10238;49.556;10.956;2023-02-28T08:31:43;99243.38;;;-0.41;100.00
20156;BME280;10238;49.556;10.956;2023-02-28T08:34:31;99248.19;;;-0.32;100.00
20156;BME280;10238;49.556;10.956;2023-02-28T08:37:19;99242.44;;;-0.20;100.00
20156;BME280;10238;49.556;10.956;2023-02-28T08:40:08;99235.34;;;0.02;100.00
20156;BME280;10238;49.556;10.956;2023-02-28T08:42:56;99235.09;;;0.08;100.00
20156;BME280;10238;49.556;10.956;2023-02-28T08:45:44;99241.47;;;0.21;100.00
20156;BME280;10238;49.556;10.956;2023-02-28T08:48:36;99233.84;;;0.35;100.00
20156;BME280;10238;49.556;10.956;2023-02-28T08:51:25;99234.53;;;0.39;100.00
20156;BME280;10238;49.556;10.956;2023-02-28T08:54:14;99240.00;;;0.53;100.00
20156;BME280;10238;49.556;10.956;2023-02-28T08:57:05;99227.97;;;0.67;100.00
20156;BME280;10238;49.556;10.956;2023-02-28T08:59:56;99231.97;;;0.74;100.00
20156;BME280;10238;49.556;10.956;2023-02-28T09:02:44;99231.47;;;0.85;100.00
20156;BME280;10238;49.556;10.956;2023-02-28T09:05:33;99228.31;;;0.95;100.00
20156;BME280;10238;49.556;10.956;2023-02-28T09:08:21;99218.19;;;1.06;100.00
20156;BME280;10238;49.556;10.956;2023-02-28T09:11:10;99224.53;;;1.19;100.00
20156;BME280;10238;49.556;10.956;2023-02-28T09:13:58;99217.97;;;1.28;100.00
20156;BME280;10238;49.556;10.956;2023-02-28T09:16:51;99223.75;;;1.34;100.00
20156;BME280;10238;49.556;10.956;2023-02-28T09:19:39;99216.34;;;1.42;100.00
20156;BME280;10238;49.556;10.956;2023-02-28T09:22:28;99215.75;;;1.54;100.00
20156;BME280;10238;49.556;10.956;2023-02-28T09:25:16;99222.13;;;1.66;100.00
20156;BME280;10238;49.556;10.956;2023-02-28T09:28:04;99215.59;;;1.57;100.00
20156;BME280;10238;49.556;10.956;2023-02-28T09:30:54;99220.38;;;1.66;100.00
20156;BME280;10238;49.556;10.956;2023-02-28T09:33:44;99225.06;;;1.77;100.00
20156;BME280;10238;49.556;10.956;2023-02-28T09:36:32;99229.06;;;1.84;100.00
20156;BME280;10238;49.556;10.956;2023-02-28T09:39:32;99222.78;;;1.86;100.00
20156;BME280;10238;49.556;10.956;2023-02-28T09:42:24;99220.44;;;1.97;100.00
20156;BME280;10238;49.556;10.956;2023-02-28T09:45:15;99217.34;;;2.06;100.00
20156;BME280;10238;49.556;10.956;2023-02-28T09:48:12;99218.47;;;2.18;100.00
20156;BME280;10238;49.556;10.956;2023-02-28T09:51:04;99219.78;;;2.27;100.00
20156;BME280;10238;49.556;10.956;2023-02-28T09:53:53;99223.44;;;2.40;100.00
20156;BME280;10238;49.556;10.956;2023-02-28T09:56:51;99226.13;;;2.38;100.00
20156;BME280;10238;49.556;10.956;2023-02-28T09:59:49;99213.50;;;2.45;100.00
20156;BME280;10238;49.556;10.956;2023-02-28T10:02:48;99223.25;;;2.58;100.00
20156;BME280;10238;49.556;10.956;2023-02-28T10:05:41;99230.19;;;2.59;100.00
20156;BME280;10238;49.556;10.956;2023-02-28T10:08:34;99222.50;;;2.72;100.00
20156;BME280;10238;49.556;10.956;2023-02-28T10:11:32;99224.44;;;2.84;100.00
20156;BME280;10238;49.556;10.956;2023-02-28T10:14:23;99219.78;;;2.89;100.00
20156;BME280;10238;49.556;10.956;2023-02-28T10:17:15;99226.13;;;2.85;100.00
20156;BME280;10238;49.556;10.956;2023-02-28T10:20:09;99228.81;;;2.99;99.41
20156;BME280;10238;49.556;10.956;2023-02-28T10:23:03;99223.56;;;3.14;100.00
20156;BME280;10238;49.556;10.956;2023-02-28T10:25:59;99221.34;;;3.22;100.00
20156;BME280;10238;49.556;10.956;2023-02-28T10:28:48;99218.63;;;3.24;99.02
20156;BME280;10238;49.556;10.956;2023-02-28T10:31:39;99216.50;;;3.30;98.47
20156;BME280;10238;49.556;10.956;2023-02-28T10:34:27;99207.69;;;3.45;100.00
20156;BME280;10238;49.556;10.956;2023-02-28T10:37:15;99213.03;;;3.73;100.00
20156;BME280;10238;49.556;10.956;2023-02-28T10:40:03;99205.72;;;3.92;98.28
20156;BME280;10238;49.556;10.956;2023-02-28T10:42:58;99198.13;;;4.16;95.94
20156;BME280;10238;49.556;10.956;2023-02-28T10:45:58;99200.44;;;4.34;98.88
20156;BME280;10238;49.556;10.956;2023-02-28T10:49:00;99188.84;;;4.65;98.64
20156;BME280;10238;49.556;10.956;2023-02-28T10:51:52;99191.28;;;4.95;98.91
20156;BME280;10238;49.556;10.956;2023-02-28T10:54:40;99185.25;;;5.19;96.97
20156;BME280;10238;49.556;10.956;2023-02-28T10:57:31;99178.66;;;5.26;91.69
20156;BME280;10238;49.556;10.956;2023-02-28T11:00:20;99188.72;;;5.59;92.32
20156;BME280;10238;49.556;10.956;2023-02-28T11:03:24;99187.94;;;5.96;97.11
20156;BME280;10238;49.556;10.956;2023-02-28T11:06:19;99192.38;;;6.08;90.60
20156;BME280;10238;49.556;10.956;2023-02-28T11:09:18;99186.25;;;6.07;85.31
20156;BME280;10238;49.556;10.956;2023-02-28T11:12:20;99186.03;;;5.85;80.92
20156;BME280;10238;49.556;10.956;2023-02-28T11:15:23;99183.44;;;6.46;90.58
20156;BME280;10238;49.556;10.956;2023-02-28T11:18:23;99182.19;;;7.12;90.08
20156;BME280;10238;49.556;10.956;2023-02-28T11:21:23;99174.13;;;7.48;86.74
20156;BME280;10238;49.556;10.956;2023-02-28T11:24:21;99179.63;;;8.36;98.81
20156;BME280;10238;49.556;10.956;2023-02-28T11:27:26;99174.03;;;8.83;98.66
20156;BME280;10238;49.556;10.956;2023-02-28T11:30:29;99165.59;;;8.78;86.05
20156;BME280;10238;49.556;10.956;2023-02-28T11:33:27;99180.56;;;8.24;79.11
20156;BME280;10238;49.556;10.956;2023-02-28T11:36:18;99167.22;;;9.01;95.45
20156;BME280;10238;49.556;10.956;2023-02-28T11:39:10;99164.03;;;9.18;90.03
20156;BME280;10238;49.556;10.956;2023-02-28T11:42:12;99162.88;;;9.00;78.67
20156;BME280;10238;49.556;10.956;2023-02-28T11:45:21;99164.88;;;8.65;77.62
20156;BME280;10238;49.556;10.956;2023-02-28T11:48:16;99163.25;;;9.79;94.18
20156;BME280;10238;49.556;10.956;2023-02-28T11:51:15;99153.81;;;9.96;86.94
20156;BME280;10238;49.556;10.956;2023-02-28T11:54:30;99162.13;;;9.82;77.25
20156;BME280;10238;49.556;10.956;2023-02-28T11:57:35;99147.44;;;10.28;81.60
20156;BME280;10238;49.556;10.956;2023-02-28T12:00:39;99152.91;;;10.57;81.99
20156;BME280;10238;49.556;10.956;2023-02-28T12:03:35;99140.13;;;11.10;83.63
20156;BME280;10238;49.556;10.956;2023-02-28T12:06:30;99145.72;;;11.26;77.40
20156;BME280;10238;49.556;10.956;2023-02-28T12:09:39;99140.13;;;11.29;77.46
20156;BME280;10238;49.556;10.956;2023-02-28T12:12:38;99148.44;;;10.67;75.92
20156;BME280;10238;49.556;10.956;2023-02-28T12:15:54;99145.84;;;10.16;70.45
20156;BME280;10238;49.556;10.956;2023-02-28T12:18:58;99146.78;;;10.85;78.60
20156;BME280;10238;49.556;10.956;2023-02-28T12:22:10;99127.22;;;11.72;91.15
20156;BME280;10238;49.556;10.956;2023-02-28T12:28:21;99127.31;;;12.35;89.45
20156;BME280;10238;49.556;10.956;2023-02-28T12:31:17;99128.47;;;12.60;89.89
20156;BME280;10238;49.556;10.956;2023-02-28T12:34:09;99117.16;;;12.48;70.75
20156;BME280;10238;49.556;10.956;2023-02-28T12:37:03;99119.38;;;12.53;80.33
20156;BME280;10238;49.556;10.956;2023-02-28T12:39:59;99114.22;;;13.14;77.20
20156;BME280;10238;49.556;10.956;2023-02-28T12:42:53;99105.16;;;13.42;79.09
20156;BME280;10238;49.556;10.956;2023-02-28T12:45:46;99104.16;;;13.07;69.88
20156;BME280;10238;49.556;10.956;2023-02-28T12:48:37;99103.94;;;13.36;75.77
20156;BME280;10238;49.556;10.956;2023-02-28T12:55:19;99102.84;;;13.90;77.54
20156;BME280;10238;49.556;10.956;2023-02-28T12:58:17;99099.06;;;14.00;73.30
20156;BME280;10238;49.556;10.956;2023-02-28T13:04:47;99115.41;;;12.30;66.84
20156;BME280;10238;49.556;10.956;2023-02-28T13:07:59;99107.91;;;12.70;69.90
20156;BME280;10238;49.556;10.956;2023-02-28T13:10:52;99111.81;;;12.48;63.43
20156;BME280;10238;49.556;10.956;2023-02-28T13:13:45;99107.41;;;12.30;66.73
20156;BME280;10238;49.556;10.956;2023-02-28T13:16:55;99106.97;;;12.34;69.55
20156;BME280;10238;49.556;10.956;2023-02-28T13:19:46;99109.28;;;13.01;78.38
20156;BME280;10238;49.556;10.956;2023-02-28T13:22:45;99106.03;;;12.53;65.16
20156;BME280;10238;49.556;10.956;2023-02-28T13:25:51;99106.53;;;12.66;70.12
20156;BME280;10238;49.556;10.956;2023-02-28T13:32:34;99099.97;;;13.40;74.81
20156;BME280;10238;49.556;10.956;2023-02-28T13:35:42;99100.09;;;13.56;72.52
20156;BME280;10238;49.556;10.956;2023-02-28T13:38:37;99099.50;;;13.27;64.03
20156;BME280;10238;49.556;10.956;2023-02-28T13:41:47;99095.13;;;12.91;65.71
20156;BME280;10238;49.556;10.956;2023-02-28T13:45:19;99095.81;;;12.93;69.38
20156;BME280;10238;49.556;10.956;2023-02-28T13:48:29;99097.16;;;13.24;76.42
20156;BME280;10238;49.556;10.956;2023-02-28T13:51:37;99092.81;;;12.78;65.13
20156;BME280;10238;49.556;10.956;2023-02-28T13:54:34;99086.78;;;12.94;71.87
20156;BME280;10238;49.556;10.956;2023-02-28T13:57:35;99088.03;;;12.82;73.12
20156;BME280;10238;49.556;10.956;2023-02-28T14:00:46;99096.34;;;11.88;67.62
20156;BME280;10238;49.556;10.956;2023-02-28T14:03:57;99096.56;;;12.04;76.18
20156;BME280;10238;49.556;10.956;2023-02-28T14:06:50;99088.19;;;12.53;74.44
20156;BME280;10238;49.556;10.956;2023-02-28T14:09:41;99084.25;;;12.03;67.00
20156;BME280;10238;49.556;10.956;2023-02-28T14:12:54;99088.31;;;11.98;76.91
20156;BME280;10238;49.556;10.956;2023-02-28T14:15:56;99090.41;;;12.04;72.18
20156;BME280;10238;49.556;10.956;2023-02-28T14:18:55;99082.94;;;12.44;74.31
20156;BME280;10238;49.556;10.956;2023-02-28T14:21:59;99083.91;;;12.43;71.19
20156;BME280;10238;49.556;10.956;2023-02-28T14:25:08;99084.75;;;12.70;74.53
20156;BME280;10238;49.556;10.956;2023-02-28T14:28:05;99082.13;;;12.61;70.60
20156;BME280;10238;49.556;10.956;2023-02-28T14:31:02;99088.50;;;12.50;67.45
20156;BME280;10238;49.556;10.956;2023-02-28T14:34:17;99083.53;;;12.38;66.75
20156;BME280;10238;49.556;10.956;2023-02-28T14:37:15;99081.41;;;12.05;72.33
20156;BME280;10238;49.556;10.956;2023-02-28T14:40:11;99080.78;;;12.20;74.78
20156;BME280;10238;49.556;10.956;2023-02-28T14:43:01;99084.31;;;12.21;71.66
20156;BME280;10238;49.556;10.956;2023-02-28T14:45:51;99087.50;;;12.24;73.13
20156;BME280;10238;49.556;10.956;2023-02-28T14:48:40;99086.13;;;11.74;59.06
20156;BME280;10238;49.556;10.956;2023-02-28T14:51:33;99087.41;;;11.80;67.24
20156;BME280;10238;49.556;10.956;2023-02-28T14:54:23;99083.75;;;11.71;72.90
20156;BME280;10238;49.556;10.956;2023-02-28T14:57:23;99079.28;;;11.72;73.47
20156;BME280;10238;49.556;10.956;2023-02-28T15:00:16;99076.19;;;11.57;64.12
20156;BME280;10238;49.556;10.956;2023-02-28T15:03:18;99079.84;;;11.66;75.77
20156;BME280;10238;49.556;10.956;2023-02-28T15:06:13;99077.06;;;11.58;76.22
20156;BME280;10238;49.556;10.956;2023-02-28T15:09:13;99078.75;;;11.40;74.77
20156;BME280;10238;49.556;10.956;2023-02-28T15:12:01;99076.78;;;11.32;69.17
20156;BME280;10238;49.556;10.956;2023-02-28T15:14:49;99072.34;;;11.14;71.15
20156;BME280;10238;49.556;10.956;2023-02-28T15:17:39;99078.91;;;11.00;73.22
20156;BME280;10238;49.556;10.956;2023-02-28T15:20:28;99080.16;;;11.06;73.37
20156;BME280;10238;49.556;10.956;2023-02-28T15:23:16;99082.41;;;11.01;73.38
20156;BME280;10238;49.556;10.956;2023-02-28T15:26:09;99082.56;;;10.99;72.91